Tiempo atmosférico en la estación meteorológica de Tarancón, Cuenca (808 m.)



Fecha
DESCASC
Temp. máxima en grados centígrados (hora)
DESCASC
Temp. mínima en grados centígrados (hora)
DESCASC
Temp. media en grados centígrados
DESCASC
Racha de viento máxima en m/sg (hora)
DESCASC
Velocidad máxima media en intervalos de 10 minutos(hora)
DESCASC
Precipitaciones diarias en mm
DESCASC
Precipitaciones de 00:00 a 06:00 en mm
DESCASC
Precipitaciones de 06:00 a 12:00 en mm
DESCASC
Precipitaciones de 12:00 a 18:00 en mm
DESCASC
Precipitaciones de 18:00 a 24:00 en mm
DESCASC
13-10-2019 27.6 (17:10) 15.1 (08:30) 21.4 12.22 (17:10) 6.11 (17:20) 0 0 0 0 0
12-10-2019 27.4 (17:10) 15.7 (08:30) 21.5 9.72 (05:30) 5.83 (00:30) 0 0 0 0 0
11-10-2019 29.8 (17:00) 15.6 (08:30) 22.7 10.83 (00:20) 5.83 (06:10) 0 0 0 0 0
10-10-2019 30.6 (17:10) 15.3 (00:00) 23 11.39 (10:20) 6.39 (08:20) 0 0 0 0 0
09-10-2019 30.5 (18:00) 16.3 (00:00) 23.4 6.39 (16:50) 3.61 (05:30) 0 0 0 0 0
08-10-2019 31.9 (16:50) 15.7 (00:00) 23.8 6.67 (11:20) 3.61 (11:20) 0 0 0 0 0
07-10-2019 30.4 (18:20) 12.8 (00:00) 21.6 9.44 (15:20) 4.17 (15:00) 0 0 0 0 0
06-10-2019 29.3 (17:10) 13.6 (00:00) 21.4 8.33 (17:00) 3.61 (15:40) 0 0 0 0 0
05-10-2019 29.3 (17:40) 13.7 (00:00) 21.5 6.39 (16:00) 3.06 (14:10) 0 0 0 0 0
04-10-2019 30.6 (17:40) 13.1 (00:00) 21.9 6.67 (15:50) 3.33 (15:50) 0 0 0 0 0
03-10-2019 26.8 (17:40) 9.9 (00:00) 18.3 6.39 (17:50) 3.06 (01:10) 0 0 0 0 0
02-10-2019 23.9 (17:30) 12.7 (00:00) 18.3 10.28 (16:00) 5.56 (12:30) 0 0 0 0 0
01-10-2019 28.2 (17:00) 15.1 (00:00) 21.7 11.67 (15:10) 5 (16:20) 0 0 0 0 0
30-09-2019 31.5 (17:30) 14.9 (00:00) 23.2 8.33 (16:00) 3.89 (17:20) 0 0 0 0 0
29-09-2019 31.5 (17:50) 15.9 (00:00) 23.7 6.94 (01:10) 4.44 (01:20) 0 0 0 0 0
28-09-2019 30.9 (17:20) 15.8 (00:00) 23.3 6.94 (16:00) 3.61 (16:00) 0 0 0 0 0
27-09-2019 29.8 (18:20) 15.8 (00:00) 22.8 8.06 (16:40) 3.89 (16:40) 0 0 0 0 0
26-09-2019 29.8 (18:10) 14.9 (00:00) 22.3 6.67 (16:20) 3.06 (10:40) 0 0 0 0 0
25-09-2019 25.6 (18:10) 14 (00:00) 19.8 11.11 (01:50) 4.44 (01:40) 0 0 0 0 0
24-09-2019 28.1 (17:30) 13.8 (00:00) 21 10 (21:40) 5.28 (15:40) 0 0 0 0 0
23-09-2019 25 (18:00) 11.7 (00:00) 18.3 7.5 (01:20) 3.89 (00:50) 0 0 0 0 0
22-09-2019 22.6 (18:00) 15.8 (00:00) 19.2 10.28 (17:30) 5.28 (11:50) 0.8 0.2 0.2 0.4 0
21-09-2019 21.5 (15:50) 15 (00:00) 18.3 11.67 (00:10) 5.83 (00:10) 5.6 5.4 0 0.2 0
20-09-2019 25.9 (18:10) 16.7 (00:00) 21.3 14.44 (10:20) 6.94 (10:50) 1.8 0 0 0 1.8
19-09-2019 30 (17:20) 16.9 (00:00) 23.4 9.17 (23:59) 5 (23:59) 0 0 0 0 0
18-09-2019 28.9 (17:30) 15.4 (00:00) 22.1 7.22 (01:50) 4.72 (01:30) 0 0 0 0 0
17-09-2019 31.4 (17:10) 16.7 (00:00) 24.1 18.06 (19:10) 8.33 (19:10) 2.6 0 0 0 2.6
16-09-2019 27 (18:00) 15.1 (00:00) 21.1 11.11 (07:20) 4.17 (08:20) 3.8 0 3.8 0 0

Gráficas

Temp. máximas Temp. mínimas Temp. medias Precipitaciones Rachas de viento máximas Velocidades máximas media en intervalos de 10 minutos

Datos horarios

Fecha y hora oficial Temperatura (ºC) Velocidad del viento (km/h) Dirección del viento Racha (km/h) Dirección de racha Precipitación (mm) Presión (hPa) Tendencia (hPa) Humedad (%)
2019-10-15 23:00:00 11.3 8 Oeste 15 Oeste 0 927.5 1 49
2019-10-15 22:00:00 11.5 4 Noroeste 9 Noroeste 0 927.1 0.8 45
2019-10-15 21:00:00 12 5 Noroeste 10 Noroeste 0 926.9 0.8 41
2019-10-15 20:00:00 13.5 3 Noroeste 17 Noroeste 0 926.5 0.3 36
2019-10-15 19:00:00 16.1 6 Noroeste 27 Oeste 0 926.3 -0.1 31
2019-10-15 18:00:00 18.5 9 Oeste 28 Noroeste 0 926.1 -0.7 27
2019-10-15 17:00:00 17.2 9 Noroeste 24 Sudoeste 0 926.2 -1.2 29
2019-10-15 16:00:00 17 8 Oeste 29 Oeste 0 926.4 -1.3 32
2019-10-15 15:00:00 16 10 Noroeste 28 Oeste 0 926.8 -0.7 39
2019-10-15 14:00:00 14.1 10 Noroeste 26 Noroeste 0 927.4 0 47
2019-10-15 13:00:00 12.8 7 Noroeste 18 Oeste 0 927.7 0.9 50
2019-10-15 12:00:00 10.5 5 Noroeste 18 Noroeste 0 927.5 1.6 55
2019-10-15 11:00:00 9.4 7 Noroeste 19 Noroeste 0 927.4 1.9 62
2019-10-15 10:00:00 7.7 5 Noroeste 21 Oeste 0 926.8 1.8 70
2019-10-15 09:00:00 6.2 5 Noroeste 21 Oeste 0 925.9 1.2 78
2019-10-15 08:00:00 6.3 8 Noroeste 21 Noroeste 0 925.5 0.8 73
2019-10-15 07:00:00 6.7 7 Noroeste 24 Oeste 0 925 0.5 70
2019-10-15 06:00:00 6.8 13 Oeste 25 Oeste 0 924.7 0.2 73
2019-10-15 05:00:00 7.4 12 Oeste 32 Noroeste 0 924.7 0.3 73
2019-10-15 04:00:00 7.8 10 Oeste 29 Oeste 0 924.5 0.6 79
2019-10-15 03:00:00 8.6 10 Noroeste 33 Oeste 0 924.5 1.1 87
2019-10-15 02:00:00 9.6 13 Oeste 30 Oeste 0 924.4 1.4 87
2019-10-15 01:00:00 9.8 12 Oeste 37 Oeste 0 923.9 1.2 87
2019-10-15 00:00:00 9.8 14 Oeste 37 Oeste 0 923.4 1.5 87
2019-10-14 23:00:00 10.1 17 Oeste 39 Oeste 0 923 0.9 83
2019-10-14 22:00:00 10.3 16 Oeste 40 Sudoeste 0.2 922.7 1.7 81
2019-10-14 21:00:00 10.5 12 Oeste 51 Oeste 0 921.9 2.4 84
2019-10-14 20:00:00 11.8 24 Oeste 63 Oeste 0 922.1 2.9 78
2019-10-14 19:00:00 14.7 37 Oeste 69 Oeste 0 921 1.6 55
2019-10-14 18:00:00 20.3 28 Sudoeste 57 Sudoeste 0 919.5 -0.1 29
2019-10-14 17:00:00 20.9 29 Sudoeste 55 Oeste 0 919.2 -0.8 33
2019-10-14 16:00:00 21.4 29 Sudoeste 56 Oeste 0 919.4 -1 36
2019-10-14 15:00:00 18.3 33 Sudoeste 56 Oeste 0.2 919.6 -1.3 54
2019-10-14 14:00:00 19.8 34 Sudoeste 58 Sudoeste 0 920 -1 56
2019-10-14 13:00:00 19.9 30 Sudoeste 56 Sudoeste 0 920.4 -0.2 52
2019-10-14 12:00:00 18.2 24 Sudoeste 49 Sudoeste 0 920.9 1 59
2019-10-14 11:00:00 17.9 28 Sudoeste 51 Sudoeste 0 921 2.5 62
2019-10-14 10:00:00 17.5 15 Sudoeste 37 Sur 0 920.6 2 58
2019-10-14 09:00:00 17.7 15 Sur 34 Sudeste 0 919.9 1.4 58
2019-10-14 08:00:00 17 17 Sudeste 33 Sudeste 0 918.5 0.2 63
2019-10-14 07:00:00 16.6 13 Sudeste 33 Sur 0 918.6 -0.4 74
2019-10-14 06:00:00 16.6 16 Sudeste 35 Sudeste 0 918.5 -1 78
2019-10-14 05:00:00 16.8 17 Sudeste 32 Sudeste 0 918.3 -2.2 76
2019-10-14 04:00:00 17 17 Sudeste 35 Este 0 919 -2.2 75
2019-10-14 03:00:00 17.7 18 Sudeste 40 Sur 0 919.5 -2.4 68
2019-10-14 02:00:00 17.1 15 Sudeste 35 Sudeste 0 920.5 -1.5 53
2019-10-14 01:00:00 18.1 13 Sudeste 30 Sudeste 0 921.2 -0.8 35
2019-10-14 00:00:00 18.3 10 Sudeste 18 Sudeste 0 921.9 0 36
2019-10-13 23:00:00 18.9 7 Sudeste 19 Sudeste 0 922 0 35
2019-10-13 22:00:00 20 10 Sudeste 18 Sur 0 922 0 33
2019-10-13 21:00:00 21.1 6 Sur 14 Sudeste 0 921.9 0 31
2019-10-13 20:00:00 22.4 6 Sur 23 Sudoeste 0 922 -0.2 30
2019-10-13 19:00:00 25.3 15 Sudoeste 37 Sudoeste 0 922 -0.3 22
2019-10-13 18:00:00 26.8 17 Sudoeste 44 Sudoeste 0 921.9 -1.1 21
2019-10-13 17:00:00 27.5 15 Sur 37 Sur 0 922.2 -1.5 24
2019-10-13 16:00:00 27 12 Sur 33 Sudoeste 0 922.3 -1.9 29
2019-10-13 15:00:00 25.5 13 Sur 30 Sudoeste 0 923 -1.5 36
2019-10-13 14:00:00 24 11 Sur 28 Sur 0 923.7 -0.6 41
2019-10-13 13:00:00 22.2 12 Sudoeste 27 Sudeste 0 924.2 0.4 54
2019-10-13 12:00:00 19.8 12 Sur 25 Sur 0 924.5 1.3 66
2019-10-13 11:00:00 18.1 12 Sudeste 27 Sudeste 0 924.3 1.7 77
2019-10-13 10:00:00 16 13 Sudeste 28 Sudeste 0 923.8 1.4 87
2019-10-13 09:00:00 15.2 12 Sudeste 23 Sudeste 0 923.2 0.8 88
2019-10-13 08:00:00 15.3 15 Sudeste 33 Sudeste 0 922.6 0 87
2019-10-13 07:00:00 15.5 15 Sudeste 33 Sudeste 0 922.4 -0.4 87
2019-10-13 06:00:00 15.9 17 Sudeste 36 Sudeste 0 922.4 -1 84
2019-10-13 05:00:00 16.5 15 Sudeste 35 Sudeste 0 922.6 -1.3 81
2019-10-13 04:00:00 17.2 18 Sudeste 36 Este 0 922.8 -1.6 78
2019-10-13 03:00:00 18 13 Sudeste 27 Este 0 923.4 -1.6 74
2019-10-13 02:00:00 18.7 14 Este 29 Este 0 923.9 -0.2 69
2019-10-13 01:00:00 19.2 12 Este 23 Este 0 924.4 -0.4 66
2019-10-13 00:00:00 19.4 5 Este 26 Sudeste 0 925 1.8 68
2019-10-12 23:00:00 19.6 9 Este 23 Oeste 0 924.1 1.4 58
2019-10-12 22:00:00 20.8 14 Oeste 30 Oeste 0 924.8 2.2 56
2019-10-12 21:00:00 20.7 11 Sudeste 21 Sudeste 0 923.2 0.1 52
2019-10-12 20:00:00 22.7 9 Sudeste 26 Sudeste 0 922.7 -0.6 42
2019-10-12 19:00:00 25.6 13 Sudeste 23 Sudeste 0 922.6 -1.1 33
2019-10-12 18:00:00 26.3 12 Sudeste 24 Sudeste 0 923.1 -1.1 31
2019-10-12 17:00:00 26.5 13 Sudeste 28 Sudeste 0 923.3 -1.4 31
2019-10-12 16:00:00 24.6 12 Sudeste 30 Sudeste 0 923.7 -1.6 37
2019-10-12 15:00:00 25.2 14 Sudeste 32 Sudeste 0 924.2 -1.3 37
2019-10-12 14:00:00 25 17 Sudeste 32 Sudeste 0 924.7 -0.5 41
2019-10-12 13:00:00 22.4 18 Sudeste 32 Sudeste 0 925.3 0.5 48
2019-10-12 12:00:00 20.4 14 Sudeste 29 Sudeste 0 925.5 1 56
2019-10-12 11:00:00 19.3 14 Sur 31 Sur 0 925.2 0.7 60
2019-10-12 10:00:00 16.7 15 Sudeste 28 Sudeste 0 924.8 0.6 76
2019-10-12 09:00:00 15.9 13 Sudeste 28 Sudeste 0 924.5 0.3 82
2019-10-12 08:00:00 15.9 15 Sudeste 27 Sudeste 0 924.5 0 82
2019-10-12 07:00:00 16.6 16 Sudeste 33 Sudeste 0 924.2 -0.8 80
2019-10-12 06:00:00 17.1 16 Sudeste 35 Sudeste 0 924.2 -1.2 79
2019-10-12 05:00:00 17.3 17 Sudeste 30 Sudeste 0 924.5 -0.9 78
2019-10-12 04:00:00 17.8 15 Sudeste 30 Sudeste 0 925 -0.4 76
2019-10-12 03:00:00 18.2 12 Sudeste 28 Sudeste 0 925.4 0 74
2019-10-12 02:00:00 18.8 15 Sudeste 30 Sudeste 0 925.4 0.1 72
2019-10-12 01:00:00 19.7 15 Sudeste 34 Sudeste 0 925.4 0.1 58
2019-10-12 00:00:00 20.6 19 Sudeste 35 Sudeste 0 925.4 0.4 51
2019-10-11 23:00:00 21.2 12 Sudeste 22 Sudeste 0 925.3 0.5 45
2019-10-11 22:00:00 21.6 9 Sudeste 18 Sudeste 0 925.3 0.5 36
2019-10-11 21:00:00 22.5 7 Sudeste 14 Sudeste 0 925 0.2 34
2019-10-11 20:00:00 23.6 7 Sudeste 19 Sur 0 924.8 -0.1 39
2019-10-11 19:00:00 25 6 Sur 25 Sudeste 0 924.8 -0.8 34
2019-10-11 18:00:00 28.6 11 Sur 26 Sur 0 924.8 -1.6 27
2019-10-11 17:00:00 29.6 12 Sudeste 29 Sudeste 0 924.9 -2.4 29
2019-10-11 16:00:00 28.2 14 Sudeste 30 Sudeste 0 925.6 -2.5 32
2019-10-11 15:00:00 27 12 Sudeste 26 Sudeste 0 926.4 -1.9 36
2019-10-11 14:00:00 25.6 13 Sudeste 29 Sudeste 0 927.3 -0.9 42
2019-10-11 13:00:00 23.1 15 Sudeste 31 Este 0 928.1 0.5 51
2019-10-11 12:00:00 20.9 15 Sudeste 29 Sudeste 0 928.3 1.3 61
2019-10-11 11:00:00 18.7 19 Sudeste 35 Sudeste 0 928.2 1.3 71
2019-10-11 10:00:00 16.8 19 Sudeste 34 Sudeste 0 927.6 0.9 79
2019-10-11 09:00:00 15.7 15 Sudeste 31 Sudeste 0 927 0.3 83
2019-10-11 08:00:00 15.8 12 Sudeste 31 Sudeste 0 926.9 0.2 83
2019-10-11 07:00:00 15.9 16 Sudeste 36 Sudeste 0 926.7 -0.3 83
2019-10-11 06:00:00 16 20 Sudeste 33 Sudeste 0 926.7 -0.5 83
2019-10-11 05:00:00 16.1 18 Sudeste 32 Este 0 926.7 -0.5 83
2019-10-11 04:00:00 16.2 20 Sudeste 36 Sudeste 0 927 -0.2 82
2019-10-11 03:00:00 16.4 20 Sudeste 37 Sudeste 0 927.2 0 80
2019-10-11 02:00:00 17.1 17 Sudeste 37 Sudeste 0 927.2 0.2 77
2019-10-11 01:00:00 17.8 20 Sudeste 39 Sudeste 0 927.2 0.6 73
2019-10-11 00:00:00 18.6 19 Sudeste 35 Sudeste 0 927.2 0.9 69
2019-10-10 23:00:00 19.7 18 Sudeste 33 Sudeste 0 927 1.2 64
2019-10-10 22:00:00 21.1 15 Sudeste 29 Sudeste 0 926.6 0.8 56
2019-10-10 21:00:00 22.5 10 Sudeste 20 Sudeste 0 926.3 0.8 48
2019-10-10 20:00:00 25 8 Sudeste 15 Sur 0 925.8 0.2 41
2019-10-10 19:00:00 28 9 Sudeste 22 Sur 0 925.8 -0.1 33
2019-10-10 18:00:00 29.8 9 Sur 26 Sudoeste 0 925.5 -1 30
2019-10-10 17:00:00 30.2 8 Sur 21 Sur 0 925.6 -1.6 29
2019-10-10 16:00:00 29.3 9 Sudeste 22 Sudeste 0 925.9 -1.6 32
2019-10-10 15:00:00 27.8 10 Sudeste 27 Este 0 926.5 -1 35
2019-10-10 14:00:00 25.9 9 Sudeste 23 Este 0 927.2 -0.1 41
2019-10-10 13:00:00 24 12 Sudeste 35 Este 0 927.5 0.5 49
2019-10-10 12:00:00 21.1 18 Sudeste 39 Sudeste 0 927.5 1.2 61
2019-10-10 11:00:00 18.8 22 Sudeste 41 Sudeste 0 927.3 1.5 71
2019-10-10 10:00:00 16.8 21 Sudeste 37 Sudeste 0 927 1.4 78
2019-10-10 09:00:00 15.7 16 Sudeste 39 Sudeste 0 926.3 0.9 81
2019-10-10 08:00:00 15.4 21 Sudeste 38 Sudeste 0 925.8 0.5 81
2019-10-10 07:00:00 16 21 Sudeste 35 Sudeste 0 925.6 0.3 77
2019-10-10 06:00:00 16.5 18 Sudeste 35 Sudeste 0 925.4 -0.1 79
2019-10-10 05:00:00 16.8 15 Sudeste 32 Sudeste 0 925.3 -0.1 82
2019-10-10 04:00:00 17.1 15 Sudeste 32 Sudeste 0 925.3 0.4 81
2019-10-10 03:00:00 17.9 14 Sudeste 31 Sudeste 0 925.5 0.6 76
2019-10-10 02:00:00 18.8 16 Sudeste 29 Sudeste 0 925.4 1 67
2019-10-10 01:00:00 20.4 9 Este 16 Este 0 924.9 0.7 41
2019-10-10 00:00:00 20 4 Nordeste 18 Noroeste 0 924.9 1.1 45
2019-10-09 23:00:00 21.1 0 Calma 6 Sudeste 0 924.4 0.8 42
2019-10-09 22:00:00 22.3 3 Norte 4 Norte 0 924.2 1 37
2019-10-09 21:00:00 23.5 2 Norte 11 Noroeste 0 923.8 0.6 34
2019-10-09 20:00:00 25.1 6 Noroeste 15 Noroeste 0 923.6 0.2 31
2019-10-09 19:00:00 28.4 6 Noroeste 22 Noroeste 0 923.2 -0.5 27
2019-10-09 18:00:00 30 8 Oeste 21 Oeste 0 923.2 -0.8 23
2019-10-09 17:00:00 29.9 9 Oeste 23 Oeste 0 923.4 -1.1 26
2019-10-09 16:00:00 29.3 8 Oeste 19 Oeste 0 923.7 -1.1 27
2019-10-09 15:00:00 27.7 4 Oeste 16 Noroeste 0 924 -0.4 32
2019-10-09 14:00:00 25.2 4 Noroeste 20 Noroeste 0 924.5 -0.3 42
2019-10-09 13:00:00 24.3 7 Noroeste 18 Norte 0 924.8 -0.1 46
2019-10-09 12:00:00 22.7 12 Sudeste 21 Sur 0 924.4 0.5 51
2019-10-09 11:00:00 20 7 Sudeste 14 Sur 0 924.8 0.9 62
2019-10-09 10:00:00 17.8 4 Este 14 Sudeste 0 924.9 1.3 69
2019-10-09 09:00:00 16.4 8 Sudeste 14 Sudeste 0 923.9 0.6 74
2019-10-09 08:00:00 16.5 7 Sudeste 13 Sudeste 0 923.9 0.5 73
2019-10-09 07:00:00 16.7 8 Sudeste 16 Sudeste 0 923.6 0 70
2019-10-09 06:00:00 17.1 13 Sudeste 20 Sudeste 0 923.3 -0.9 69
2019-10-09 05:00:00 17.4 10 Sudeste 18 Sudeste 0 923.4 -1 67
2019-10-09 04:00:00 17.9 12 Sudeste 17 Sudeste 0 923.6 -0.9 63
2019-10-09 03:00:00 18.7 11 Sudeste 15 Sudeste 0 924.2 -0.4 55
2019-10-09 02:00:00 19.3 9 Sudeste 14 Sudeste 0 924.4 -0.2 48
2019-10-09 01:00:00 20.1 8 Sudeste 15 Sur 0 924.5 0 42
2019-10-09 00:00:00 21.4 7 Sudeste 12 Sudeste 0 924.6 0.2 38
2019-10-08 23:00:00 22.5 5 Sur 10 Sur 0 924.6 0.4 35
2019-10-08 22:00:00 22.8 4 Sur 8 Sur 0 924.5 0.3 34
2019-10-08 21:00:00 24.1 3 Sur 7 Sur 0 924.4 0.1 31
2019-10-08 20:00:00 26.7 4 Sudoeste 10 Sudoeste 0 924.2 -0.5 26
2019-10-08 19:00:00 29.3 8 Oeste 19 Sudoeste 0 924.2 -0.9 22
2019-10-08 18:00:00 31 6 Oeste 19 Sudoeste 0 924.3 -1.1 20
2019-10-08 17:00:00 31.4 8 Sudoeste 21 Sudoeste 0 924.7 -1.5 21
2019-10-08 16:00:00 30.4 10 Sudoeste 22 Sudoeste 0 925.1 -1.7 22
2019-10-08 15:00:00 28.6 5 Noroeste 16 Oeste 0 925.4 -1.7 25
2019-10-08 14:00:00 27.6 4 Sudeste 16 Sur 0 926.2 -1 28
2019-10-08 13:00:00 26 9 Sur 21 Sudeste 0 926.8 0.1 32
2019-10-08 12:00:00 22.7 13 Sudeste 24 Sudeste 0 927.1 0.6 40
2019-10-08 11:00:00 20.4 12 Sudeste 20 Sudeste 0 927.2 0.8 45
2019-10-08 10:00:00 17.9 10 Sudeste 17 Sudeste 0 926.7 0.8 51
2019-10-08 09:00:00 15.9 7 Sudeste 19 Sudeste 0 926.5 0.9 52
2019-10-08 08:00:00 16.3 10 Sudeste 17 Sur 0 926.4 0.5 49
2019-10-08 07:00:00 17.1 4 Sudeste 12 Nordeste 0 925.9 0 45
2019-10-08 06:00:00 16.9 5 Nordeste 12 Sudeste 0 925.6 -0.9 46
2019-10-08 05:00:00 17.4 6 Este 9 Este 0 925.9 -0.6 41
2019-10-08 04:00:00 18.1 4 Nordeste 11 Nordeste 0 925.9 -0.8 37
2019-10-08 03:00:00 19.3 8 Nordeste 17 Nordeste 0 926.5 -0.1 32
2019-10-08 02:00:00 19.6 4 Nordeste 13 Nordeste 0 926.5 -0.2 35
2019-10-08 01:00:00 20.1 5 Nordeste 10 Nordeste 0 926.7 0.6 36
2019-10-08 00:00:00 19.5 3 Nordeste 7 Nordeste 0 926.6 0.9 43
2019-10-07 23:00:00 20.7 5 Sudeste 9 Noroeste 0 926.7 1.1 39
2019-10-07 22:00:00 21.6 5 Norte 8 Noroeste 0 926.1 0.8 36
2019-10-07 21:00:00 22.4 4 Noroeste 13 Noroeste 0 925.7 0.5 34
2019-10-07 20:00:00 25.1 5 Oeste 19 Noroeste 0 925.6 0.3 30
2019-10-07 19:00:00 28.8 8 Noroeste 19 Noroeste 0 925.3 -0.5 23
2019-10-07 18:00:00 30 7 Oeste 26 Noroeste 0 925.2 -0.9 21
2019-10-07 17:00:00 28.2 8 Norte 24 Norte 0 925.3 -1.3 23
2019-10-07 16:00:00 26.4 10 Norte 34 Norte 0 925.8 -1 25
2019-10-07 15:00:00 25.4 15 Norte 30 Norte 0 926.1 -0.7 26
2019-10-07 14:00:00 24.1 11 Noroeste 31 Noroeste 0 926.6 -0.2 27
2019-10-07 13:00:00 22.7 11 Norte 23 Norte 0 926.8 0.4 30
2019-10-07 12:00:00 19.7 8 Noroeste 19 Noroeste 0 926.8 1 40
2019-10-07 11:00:00 17.5 8 Noroeste 19 Norte 0 926.8 1.1 49
2019-10-07 10:00:00 15.8 4 Noroeste 18 Norte 0 926.4 0.8 56
2019-10-07 09:00:00 13 8 Norte 22 Norte 0 925.8 0.2 62
2019-10-07 08:00:00 13.5 7 Norte 12 Nordeste 0 925.7 0.3 59
2019-10-07 07:00:00 13.9 2 Norte 9 Noroeste 0 925.6 -0.2 55
2019-10-07 06:00:00 14.9 3 Norte 6 Noroeste 0 925.6 -0.6 51
2019-10-07 05:00:00 15.2 3 Noroeste 9 Norte 0 925.4 -1 49
2019-10-07 04:00:00 16.6 2 Nordeste 12 Nordeste 0 925.8 -0.9 47
2019-10-07 03:00:00 17.3 8 Nordeste 14 Nordeste 0 926.2 -0.6 44
2019-10-07 02:00:00 16.5 9 Norte 14 Norte 0 926.4 0.1 45
2019-10-07 01:00:00 18.2 3 Norte 7 Noroeste 0 926.7 0.7 37
2019-10-07 00:00:00 18.9 4 Norte 17 Oeste 0 926.8 1.2 36
2019-10-06 23:00:00 20.4 11 Oeste 20 Oeste 0 926.3 0.9 32
2019-10-06 22:00:00 21 3 Sudoeste 5 Oeste 0 926 0.8 30
2019-10-06 21:00:00 22.2 4 Oeste 12 Oeste 0 925.6 0.2 27
2019-10-06 20:00:00 24.4 6 Oeste 16 Oeste 0 925.4 -0.3 23
2019-10-06 19:00:00 26.4 8 Oeste 23 Oeste 0 925.2 -0.7 20
2019-10-06 18:00:00 28.9 10 Oeste 24 Oeste 0 925.4 -0.8 15
2019-10-06 17:00:00 28.9 11 Noroeste 30 Norte 0 925.7 -1.1 20
2019-10-06 16:00:00 28.1 10 Oeste 24 Oeste 0 925.9 -0.9 24
2019-10-06 15:00:00 26.5 9 Oeste 22 Oeste 0 926.2 -0.9 25
2019-10-06 14:00:00 25.9 6 Noroeste 17 Noroeste 0 926.8 -0.4 29
2019-10-06 13:00:00 23.7 3 Nordeste 16 Norte 0 926.8 0.5 34
2019-10-06 12:00:00 21.7 5 Este 10 Sudeste 0 927.1 1.3 40
2019-10-06 11:00:00 18.9 3 Norte 9 Norte 0 927.2 2 50
2019-10-06 10:00:00 16.9 3 Este 5 Nordeste 0 926.3 1.3 55
2019-10-06 09:00:00 14.3 2 Sudeste 8 Sudeste 0 925.8 0.7 64
2019-10-06 08:00:00 14.3 4 Este 5 Sudeste 0 925.2 0.9 64
2019-10-06 07:00:00 13.7 3 Sudoeste 6 Sur 0 925 0.2 65
2019-10-06 06:00:00 14.7 3 Sudoeste 9 Sudeste 0 925.1 -0.2 62
2019-10-06 05:00:00 16.2 6 Sudeste 9 Sudeste 0 924.3 -0.6 57
2019-10-06 04:00:00 16.8 3 Noroeste 8 Noroeste 0 924.8 -0.2 55
2019-10-06 03:00:00 17.3 4 Oeste 7 Oeste 0 925.3 0.4 54
2019-10-06 02:00:00 18 3 Sudoeste 12 Sudoeste 0 924.9 0.1 52
2019-10-06 01:00:00 18.4 11 Oeste 16 Oeste 0 925 0.6 47
2019-10-06 00:00:00 19 9 Sudoeste 11 Sudoeste 0 924.9 0.8 41
2019-10-05 23:00:00 19.9 6 Sudoeste 8 Oeste 0 924.8 1 40
2019-10-05 22:00:00 21.2 2 Noroeste 6 Oeste 0 924.4 1 35
2019-10-05 21:00:00 22.3 4 Oeste 8 Oeste 0 924.1 0.8 32
2019-10-05 20:00:00 24.6 4 Noroeste 17 Oeste 0 923.8 0.6 27
2019-10-05 19:00:00 27.9 7 Noroeste 20 Oeste 0 923.4 0 22
2019-10-05 18:00:00 29.2 8 Oeste 22 Oeste 0 923.3 -0.4 21
2019-10-05 17:00:00 28.6 9 Oeste 20 Sudoeste 0 923.2 -1 22
2019-10-05 16:00:00 28 9 Noroeste 23 Noroeste 0 923.4 -1.1 25
2019-10-05 15:00:00 26.5 8 Noroeste 21 Oeste 0 923.7 -0.9 28
2019-10-05 14:00:00 25.8 8 Sudoeste 20 Sudoeste 0 924.2 -0.4 29
2019-10-05 13:00:00 23.1 4 Sur 11 Sudeste 0 924.5 0.4 34
2019-10-05 12:00:00 20.3 5 Sudeste 10 Sudeste 0 924.6 1 43
2019-10-05 11:00:00 17.7 4 Sudeste 10 Sudeste 0 924.6 1.4 49
2019-10-05 10:00:00 15.5 5 Sudeste 14 Sur 0 924.1 1.1 54
2019-10-05 09:00:00 13.9 8 Sudeste 13 Sudeste 0 923.6 0.4 58
2019-10-05 08:00:00 13.7 8 Sudeste 12 Sudeste 0 923.2 0.1 57
2019-10-05 07:00:00 14.2 6 Sudeste 12 Sudeste 0 923 -0.3 57
2019-10-05 06:00:00 14.7 4 Sur 8 Sudoeste 0 923.2 -0.2 55
2019-10-05 05:00:00 15.5 6 Sudoeste 9 Sur 0 923.1 -0.3 52
2019-10-05 04:00:00 16.3 5 Sudeste 8 Sur 0 923.3 -0.4 46
2019-10-05 03:00:00 17.5 4 Nordeste 10 Oeste 0 923.4 -0.3 43
2019-10-05 02:00:00 18.8 5 Oeste 12 Noroeste 0 923.4 -0.1 37
2019-10-05 01:00:00 19.5 6 Oeste 12 Oeste 0 923.7 0.2 34
2019-10-05 00:00:00 20.2 6 Noroeste 14 Oeste 0 923.7 0.5 30
2019-10-04 23:00:00 20.8 4 Noroeste 8 Oeste 0 923.5 0.4 29
2019-10-04 22:00:00 21.7 4 Noroeste 8 Noroeste 0 923.5 0.7 28
2019-10-04 21:00:00 23.1 2 Noroeste 8 Noroeste 0 923.2 0.1 26
2019-10-04 20:00:00 25.2 3 Noroeste 18 Oeste 0 923.1 -0.2 23
2019-10-04 19:00:00 28.9 6 Oeste 19 Noroeste 0 922.8 -1 17
2019-10-04 18:00:00 30.3 7 Oeste 20 Oeste 0 923.1 -1.1 15
2019-10-04 17:00:00 29.7 7 Oeste 22 Oeste 0 923.3 -1.8 16
2019-10-04 16:00:00 28.1 8 Sudoeste 24 Sudoeste 0 923.8 -1.7 18
2019-10-04 15:00:00 27.3 9 Oeste 21 Sudoeste 0 924.2 -1.6 20
2019-10-04 14:00:00 26.7 8 Sur 19 Sudeste 0 925.1 -1 21
2019-10-04 13:00:00 24.4 8 Sur 19 Sudeste 0 925.5 -0.2 26
2019-10-04 12:00:00 21.1 10 Sudeste 18 Sudeste 0 925.8 0.5 34
2019-10-04 11:00:00 18.2 8 Sur 15 Sur 0 926.1 1 38
2019-10-04 10:00:00 15.7 6 Sudeste 11 Sudeste 0 925.7 0.6 44
2019-10-04 09:00:00 13.4 7 Sudeste 12 Sudeste 0 925.3 0.2 49
2019-10-04 08:00:00 13.3 4 Sudeste 13 Sudeste 0 925.1 0.1 48
2019-10-04 07:00:00 13.6 9 Sudeste 15 Sudeste 0 925.1 -0.1 46
2019-10-04 06:00:00 14.1 6 Sudeste 15 Sudeste 0 925.1 -0.4 44
2019-10-04 05:00:00 14.4 6 Sudeste 12 Sudeste 0 925 -0.6 43
2019-10-04 04:00:00 14.9 7 Sudeste 11 Sudeste 0 925.2 -0.5 40
2019-10-04 03:00:00 15.2 5 Sudeste 13 Sudeste 0 925.5 -0.3 39
2019-10-04 02:00:00 15.8 4 Sur 10 Sur 0 925.6 0 39
2019-10-04 01:00:00 16.8 6 Sudoeste 12 Sudoeste 0 925.7 0.1 35
2019-10-04 00:00:00 17.6 6 Sur 12 Sur 0 925.8 0.5 33
2019-10-03 23:00:00 17.7 4 Sur 9 Sur 0 925.6 0.5 33
2019-10-03 22:00:00 18.6 2 Sur 4 Sur 0 925.6 0.7 32
2019-10-03 21:00:00 20.4 0 Calma 4 Nordeste 0 925.3 0.3 28
2019-10-03 20:00:00 22.4 3 Noroeste 15 Noroeste 0 925.1 0.1 23
2019-10-03 19:00:00 25.2 6 Noroeste 20 Noroeste 0 924.9 -0.3 19
2019-10-03 18:00:00 25.4 8 Noroeste 23 Oeste 0 925 -0.5 21
2019-10-03 17:00:00 26.3 6 Oeste 19 Oeste 0 925 -1.3 20
2019-10-03 16:00:00 24.8 5 Oeste 19 Noroeste 0 925.2 -1.4 25
2019-10-03 15:00:00 23 6 Oeste 22 Noroeste 0 925.5 -1.5 27
2019-10-03 14:00:00 21.5 6 Oeste 22 Noroeste 0 926.3 -0.7 31
2019-10-03 13:00:00 18.9 5 Oeste 12 Noroeste 0 926.6 0.1 40
2019-10-03 12:00:00 15.9 5 Norte 9 Norte 0 927 1.1 50
2019-10-03 11:00:00 13.8 2 Oeste 10 Noroeste 0 927 1.2 59
2019-10-03 10:00:00 12.3 4 Noroeste 10 Norte 0 926.5 1.2 64
2019-10-03 09:00:00 10.2 3 Noroeste 7 Sur 0 925.9 0.7 71
2019-10-03 08:00:00 9.9 5 Oeste 13 Sur 0 925.8 0.6 69
2019-10-03 07:00:00 11.4 3 Noroeste 7 Noroeste 0 925.3 -0.1 64
2019-10-03 06:00:00 12.7 4 Norte 8 Este 0 925.2 -0.6 58
2019-10-03 05:00:00 13.9 4 Este 10 Nordeste 0 925.2 -0.7 53
2019-10-03 04:00:00 14.1 4 Este 10 Nordeste 0 925.4 -0.8 52
2019-10-03 03:00:00 13.7 3 Sudeste 11 Nordeste 0 925.8 -0.3 54
2019-10-03 02:00:00 14.1 5 Norte 19 Nordeste 0 925.9 -0.1 52
2019-10-03 01:00:00 15 9 Norte 16 Norte 0 926.2 0.5 49
2019-10-03 00:00:00 15.2 6 Norte 16 Norte 0 926.1 0.8 48
2019-10-02 23:00:00 16.3 6 Norte 14 Norte 0 926 1 44
2019-10-02 22:00:00 17 5 Norte 15 Norte 0 925.7 1.2 41
2019-10-02 21:00:00 17.7 7 Norte 12 Norte 0 925.3 1 38
2019-10-02 20:00:00 19.2 9 Norte 26 Norte 0 925 0.6 34
2019-10-02 19:00:00 21.5 11 Norte 27 Noroeste 0 924.5 0.1 27
2019-10-02 18:00:00 22.9 13 Norte 32 Noroeste 0 924.3 -0.3 24
2019-10-02 17:00:00 22.9 14 Norte 37 Norte 0 924.4 -0.5 24
2019-10-02 16:00:00 23.3 16 Noroeste 37 Noroeste 0 924.4 -0.9 21
2019-10-02 15:00:00 21.7 11 Noroeste 32 Noroeste 0 924.6 -0.5 24
2019-10-02 14:00:00 19.8 14 Norte 30 Norte 0 924.9 0 34
2019-10-02 13:00:00 18.3 14 Noroeste 34 Norte 0 925.3 0.9 41
2019-10-02 12:00:00 17 15 Norte 27 Norte 0 925.1 1.4 47
2019-10-02 11:00:00 14.4 6 Norte 15 Norte 0 924.9 1.6 64
2019-10-02 10:00:00 13.9 5 Norte 12 Norte 0 924.4 1.4 65
2019-10-02 09:00:00 13.1 4 Noroeste 14 Noroeste 0 923.7 0.9 67
2019-10-02 08:00:00 12.9 3 Noroeste 13 Noroeste 0 923.3 0.6 67
2019-10-02 07:00:00 13.6 5 Noroeste 20 Noroeste 0 923 0.2 65
2019-10-02 06:00:00 14.4 10 Noroeste 22 Oeste 0 922.8 -0.3 60
2019-10-02 05:00:00 15.1 6 Noroeste 24 Noroeste 0 922.7 -0.4 56
2019-10-02 04:00:00 15.6 8 Noroeste 18 Noroeste 0 922.8 -0.5 55
2019-10-02 03:00:00 16.1 6 Noroeste 16 Oeste 0 923.1 -0.1 54
2019-10-02 02:00:00 16.5 5 Oeste 17 Noroeste 0 923.1 0.3 52
2019-10-02 01:00:00 17.4 6 Noroeste 17 Noroeste 0 923.3 1 49
2019-10-02 00:00:00 17.8 7 Oeste 15 Oeste 0 923.2 1.4 49
2019-10-01 23:00:00 18.8 5 Oeste 15 Oeste 0 922.8 1.2 46
2019-10-01 22:00:00 20.2 8 Noroeste 23 Noroeste 0 922.3 1.2 43
2019-10-01 21:00:00 21.2 9 Noroeste 28 Noroeste 0 921.8 0.9 41
2019-10-01 20:00:00 23.4 14 Noroeste 33 Noroeste 0 921.6 0.7 34
2019-10-01 19:00:00 26.6 13 Noroeste 38 Noroeste 0 921.1 0 23
2019-10-01 18:00:00 28.2 11 Noroeste 37 Oeste 0 920.9 -0.6 19
2019-10-01 17:00:00 28.1 14 Oeste 41 Noroeste 0 920.9 -1.1 20
2019-10-01 16:00:00 27.4 15 Oeste 42 Oeste 0 921.1 -1.2 19
2019-10-01 15:00:00 26.5 14 Oeste 38 Oeste 0 921.5 -0.9 23
2019-10-01 14:00:00 25.6 15 Oeste 32 Oeste 0 922 -0.4 25
2019-10-01 13:00:00 25.2 12 Oeste 28 Oeste 0 922.3 0.3 27
2019-10-01 12:00:00 22.7 14 Oeste 26 Oeste 0 922.4 0.7 33
2019-10-01 11:00:00 20.3 12 Oeste 21 Oeste 0 922.4 1 38
2019-10-01 10:00:00 17.5 7 Sur 15 Sur 0 922 0.9 44
2019-10-01 09:00:00 15.2 8 Sur 16 Sudeste 0 921.7 0.5 48
2019-10-01 08:00:00 16 6 Sur 17 Sur 0 921.4 -0.2 42
2019-10-01 07:00:00 16.3 8 Sudeste 12 Sudeste 0 921.1 -1.2 41
2019-10-01 06:00:00 16.4 9 Sudeste 13 Sudeste 0 921.2 -1.8 41
2019-10-01 05:00:00 16.1 7 Sudeste 15 Sudeste 0 921.6 -1.3 43
2019-10-01 04:00:00 17 8 Sur 20 Sur 0 922.3 -0.8 41
2019-10-01 03:00:00 18.5 9 Sudeste 24 Sur 0 923 -0.2 35
2019-10-01 02:00:00 19.2 6 Sudeste 10 Sudeste 0 922.9 -0.3 33
2019-10-01 01:00:00 19.8 5 Sudoeste 13 Sur 0 923.1 0 31
2019-10-01 00:00:00 20.4 6 Sur 15 Sur 0 923.2 0.2 29
2019-09-30 23:00:00 21.1 8 Sudeste 12 Sudeste 0 923.2 0.2 29
2019-09-30 22:00:00 22.4 6 Sudeste 11 Sur 0 923.1 0 28
2019-09-30 21:00:00 24 6 Sudeste 10 Sur 0 923 -0.3 25
2019-09-30 20:00:00 27 2 Sur 13 Sudoeste 0 923 -0.7 21
2019-09-30 19:00:00 29.9 6 Sur 19 Sudoeste 0 923.1 -1.1 14
2019-09-30 18:00:00 31.2 9 Sudoeste 23 Sudoeste 0 923.3 -1.5 14
2019-09-30 17:00:00 31 11 Oeste 24 Oeste 0 923.7 -1.8 14
2019-09-30 16:00:00 30.4 12 Oeste 30 Oeste 0 924.2 -1.7 15
2019-09-30 15:00:00 29.5 12 Sudoeste 27 Oeste 0 924.8 -1.3 15
2019-09-30 14:00:00 28.4 11 Sudoeste 19 Oeste 0 925.5 -0.5 17
2019-09-30 13:00:00 26.3 8 Sudoeste 15 Sudoeste 0 925.9 0.2 21
2019-09-30 12:00:00 23.2 6 Sur 12 Sudeste 0 926.1 0.8 26
2019-09-30 11:00:00 20 6 Sudeste 12 Sudeste 0 926 0.9 32
2019-09-30 10:00:00 17.3 6 Sudeste 12 Sudeste 0 925.7 0.8 35
2019-09-30 09:00:00 15.4 8 Sudeste 17 Sudeste 0 925.3 0.4 41
2019-09-30 08:00:00 15 6 Sudeste 13 Sudeste 0 925.1 0.2 41
2019-09-30 07:00:00 15.5 8 Sudeste 13 Sudeste 0 924.9 -0.5 37
2019-09-30 06:00:00 16.1 4 Sudeste 12 Sudeste 0 924.9 -0.8 35
2019-09-30 05:00:00 16.7 3 Sudeste 10 Sudeste 0 924.9 -0.6 33
2019-09-30 04:00:00 16.9 7 Sudeste 12 Sur 0 925.4 -0.3 33
2019-09-30 03:00:00 18 5 Sudeste 10 Sudoeste 0 925.7 -0.1 30
2019-09-30 02:00:00 19.4 7 Sudoeste 12 Sudoeste 0 925.5 -0.3 23
2019-09-30 01:00:00 19.9 6 Sudoeste 11 Sudoeste 0 925.7 0.1 26
2019-09-30 00:00:00 21 6 Sudoeste 11 Oeste 0 925.8 0.8 23
2019-09-29 23:00:00 21 5 Oeste 7 Oeste 0 925.8 0.9 24
2019-09-29 22:00:00 22.3 4 Sudoeste 7 Oeste 0 925.6 0.6 25
2019-09-29 21:00:00 24.1 3 Sudoeste 5 Oeste 0 925 0 25
2019-09-29 20:00:00 27.2 4 Oeste 12 Noroeste 0 924.9 -0.5 19
2019-09-29 19:00:00 30.2 8 Noroeste 21 Oeste 0 925 -0.7 15
2019-09-29 18:00:00 30.9 9 Oeste 22 Noroeste 0 925 -1.2 14
2019-09-29 17:00:00 30.6 11 Oeste 24 Oeste 0 925.4 -1.4 17
2019-09-29 16:00:00 30.2 7 Noroeste 22 Oeste 0 925.7 -1.1 18
2019-09-29 15:00:00 29.2 8 Oeste 18 Noroeste 0 926.2 -0.7 23
2019-09-29 14:00:00 27.1 7 Oeste 18 Sudoeste 0 926.8 0.1 27
2019-09-29 13:00:00 25.7 8 Sudoeste 18 Sudoeste 0 926.8 0.5 35
2019-09-29 12:00:00 22.6 7 Sudeste 20 Sudeste 0 926.9 1 51
2019-09-29 11:00:00 19.9 12 Sur 21 Sur 0 926.7 1 65
2019-09-29 10:00:00 17.7 10 Sudeste 17 Sudeste 0 926.3 0.8 78
2019-09-29 09:00:00 16.6 9 Sudeste 14 Sudeste 0 925.9 0.4 80
2019-09-29 08:00:00 16.4 7 Este 12 Sudeste 0 925.7 0.2 81
2019-09-29 07:00:00 16 9 Sudeste 17 Sudeste 0 925.5 -0.6 82
2019-09-29 06:00:00 16.5 11 Sudeste 17 Sur 0 925.5 -0.7 80
2019-09-29 05:00:00 17 12 Sudeste 17 Sudeste 0 925.5 -0.7 76
2019-09-29 04:00:00 17.5 10 Sudeste 17 Sudeste 0 926.1 -0.3 73
2019-09-29 03:00:00 18.3 8 Sudeste 21 Sudeste 0 926.2 -0.3 69
2019-09-29 02:00:00 18.9 12 Sudeste 25 Sudeste 0 926.2 -0.2 67
2019-09-29 01:00:00 19.6 13 Sudeste 20 Sudeste 0 926.4 0.1 40
2019-09-29 00:00:00 20.3 8 Sudeste 12 Sudeste 0 926.5 0.3 26
2019-09-28 23:00:00 21.3 4 Sudeste 6 Este 0 926.4 0.3 25
2019-09-28 22:00:00 21.9 3 Sudeste 8 Sudeste 0 926.3 0.1 26
2019-09-28 21:00:00 23.4 4 Sudeste 5 Sudeste 0 926.2 0 24
2019-09-28 20:00:00 26.3 4 Sudoeste 15 Sudoeste 0 926.1 -0.3 17
2019-09-28 19:00:00 29.5 7 Sudoeste 18 Oeste 0 926.2 -0.6 13
2019-09-28 18:00:00 30.3 10 Oeste 22 Sudoeste 0 926.2 -0.9 13
2019-09-28 17:00:00 30.3 9 Sudoeste 22 Sudoeste 0 926.4 -1.5 13
2019-09-28 16:00:00 29.5 13 Sudoeste 25 Sudoeste 0 926.8 -1.4 14
2019-09-28 15:00:00 28.5 10 Sudoeste 21 Sudoeste 0 927.1 -1.2 17
2019-09-28 14:00:00 27.7 9 Sudoeste 21 Sudoeste 0 927.9 -0.3 20
2019-09-28 13:00:00 25.5 9 Sur 18 Sur 0 928.2 0.5 25
2019-09-28 12:00:00 22.7 9 Sudeste 18 Sur 0 928.3 1.3 35
2019-09-28 11:00:00 19.4 9 Sudeste 18 Sudeste 0 928.2 1.8 42
2019-09-28 10:00:00 17.3 0 Calma 12 Sudeste 0 927.7 1.4 47
2019-09-28 09:00:00 15.9 8 Sudeste 12 Sudeste 0 927 0.5 49
2019-09-28 08:00:00 16.3 6 Sudeste 12 Este 0 926.4 -0.2 46
2019-09-28 07:00:00 17.1 10 Este 15 Este 0 926.3 -0.3 43
2019-09-28 06:00:00 16.5 8 Este 12 Este 0 926.5 -0.1 45
2019-09-28 05:00:00 16.6 9 Sudeste 12 Sudeste 0 926.6 -0.1 42
2019-09-28 04:00:00 17.3 3 Nordeste 8 Noroeste 0 926.6 -0.3 37
2019-09-28 03:00:00 18 0 Calma 8 Sudoeste 0 926.6 -0.1 36
2019-09-28 02:00:00 18.3 5 Sudoeste 10 Sudoeste 0 926.7 0.2 34
2019-09-28 01:00:00 18.8 6 Sudoeste 11 Sudoeste 0 926.9 0.7 37
2019-09-28 00:00:00 19.6 6 Sudoeste 10 Sudoeste 0 926.7 0.9 35
2019-09-27 23:00:00 20.4 5 Sur 9 Sur 0 926.5 0.8 38
2019-09-27 22:00:00 21.4 5 Sudeste 6 Sudeste 0 926.2 0.7 36
2019-09-27 21:00:00 23.4 2 Sur 4 Noroeste 0 925.8 0.4 31
2019-09-27 20:00:00 26.2 3 Noroeste 19 Oeste 0 925.7 0.2 24
2019-09-27 19:00:00 28.5 7 Oeste 24 Oeste 0 925.5 -0.4 21
2019-09-27 18:00:00 29.7 10 Oeste 28 Oeste 0 925.4 -0.9 19
2019-09-27 17:00:00 29.3 11 Sudoeste 29 Sudoeste 0 925.5 -1.3 21
2019-09-27 16:00:00 29.2 10 Oeste 23 Oeste 0 925.9 -1.1 23
2019-09-27 15:00:00 28.3 9 Oeste 20 Noroeste 0 926.3 -0.9 25
2019-09-27 14:00:00 26.8 9 Sudoeste 21 Noroeste 0 926.8 -0.3 28
2019-09-27 13:00:00 24.9 8 Oeste 17 Sudoeste 0 927 0.3 30
2019-09-27 12:00:00 22.4 8 Sudoeste 17 Sur 0 927.2 0.7 36
2019-09-27 11:00:00 19.5 9 Sur 18 Sur 0 927.1 0.8 48
2019-09-27 10:00:00 17.3 9 Sur 18 Sudeste 0 926.7 0.7 60
2019-09-27 09:00:00 16.9 8 Sur 17 Sur 0 926.5 0.6 57
2019-09-27 08:00:00 16.9 8 Sudeste 14 Sur 0 926.3 0.4 55
2019-09-27 07:00:00 16.3 7 Sudeste 12 Sudeste 0 926 -0.1 59
2019-09-27 06:00:00 16.2 8 Sudeste 11 Sudeste 0 925.9 -0.5 60
2019-09-27 05:00:00 16.9 6 Sudeste 12 Sur 0 925.9 -0.5 58
2019-09-27 04:00:00 18.2 8 Sur 14 Sur 0 926.1 -0.5 51
2019-09-27 03:00:00 18.4 7 Sudoeste 18 Sudoeste 0 926.4 -0.3 51
2019-09-27 02:00:00 19.4 5 Sur 8 Sur 0 926.4 -0.1 47
2019-09-27 01:00:00 19.9 5 Sur 11 Sur 0 926.6 0.3 46
2019-09-27 00:00:00 20.2 6 Sur 12 Sur 0 926.7 0.7 47
2019-09-26 23:00:00 20.8 5 Sudeste 12 Sur 0 926.5 0.7 44
2019-09-26 22:00:00 21.9 5 Sudeste 8 Sur 0 926.3 0.6 41
2019-09-26 21:00:00 23.4 4 Sur 6 Sudoeste 0 926 0.4 34
2019-09-26 20:00:00 25.5 5 Sudoeste 12 Oeste 0 925.8 -0.1 31
2019-09-26 19:00:00 27.9 7 Oeste 17 Sudoeste 0 925.7 -0.4 26
2019-09-26 18:00:00 29.6 4 Sudoeste 18 Sudoeste 0 925.6 -0.8 23
2019-09-26 17:00:00 28.9 9 Sudoeste 24 Sur 0 925.9 -1.1 24
2019-09-26 16:00:00 28.1 8 Oeste 21 Sudoeste 0 926.1 -1.3 25
2019-09-26 15:00:00 26.9 9 Sur 20 Sudoeste 0 926.4 -1.3 27
2019-09-26 14:00:00 25.4 8 Sudoeste 18 Sudoeste 0 927 -0.5 30
2019-09-26 13:00:00 23.8 8 Sudoeste 17 Sudeste 0 927.4 0.5 33
2019-09-26 12:00:00 21.3 9 Sur 20 Sudeste 0 927.7 1.3 45
2019-09-26 11:00:00 18.8 9 Sur 19 Sur 0 927.5 1.6 53
2019-09-26 10:00:00 16.7 10 Sudeste 19 Sudeste 0 926.9 1.4 58
2019-09-26 09:00:00 15.4 6 Sudeste 12 Este 0 926.4 0.9 60
2019-09-26 08:00:00 14.9 8 Sudeste 14 Sudeste 0 925.9 0.3 61
2019-09-26 07:00:00 15.7 7 Este 14 Este 0 925.5 0 56
2019-09-26 06:00:00 15.9 7 Este 10 Este 0 925.5 -0.2 56
2019-09-26 05:00:00 16.3 4 Sudeste 11 Este 0 925.6 -0.1 55
2019-09-26 04:00:00 16.3 4 Sudeste 7 Norte 0 925.5 -0.3 58
2019-09-26 03:00:00 16.4 4 Norte 8 Sur 0 925.7 0 56
2019-09-26 02:00:00 17.1 4 Sudeste 10 Sur 0 925.7 0.3 56
2019-09-26 01:00:00 17.2 3 Sur 8 Sur 0 925.8 0.6 54
2019-09-26 00:00:00 17.8 3 Sur 9 Sudeste 0 925.7 0.7 53
2019-09-25 23:00:00 18.5 3 Sudoeste 7 Sudoeste 0 925.4 0.7 48
2019-09-25 22:00:00 19.7 2 Norte 8 Oeste 0 925.2 0.8 42
2019-09-25 21:00:00 20.5 4 Oeste 7 Noroeste 0 925 0.8 44
2019-09-25 20:00:00 22.3 5 Noroeste 18 Noroeste 0 924.7 0.4 38
2019-09-25 19:00:00 23.5 3 Noroeste 13 Noroeste 0 924.4 -0.1 36
2019-09-25 18:00:00 25.3 4 Oeste 21 Noroeste 0 924.2 -0.8 33
2019-09-25 17:00:00 23.9 6 Noroeste 19 Noroeste 0 924.3 -1.2 34
2019-09-25 16:00:00 24.3 7 Noroeste 21 Noroeste 0 924.5 -1.1 31
2019-09-25 15:00:00 22.9 7 Noroeste 22 Noroeste 0 925 -0.8 35
2019-09-25 14:00:00 22.1 8 Oeste 21 Oeste 0 925.5 -0.1 39
2019-09-25 13:00:00 20.7 6 Oeste 19 Sudoeste 0 925.6 0.3 48
2019-09-25 12:00:00 18.7 6 Sudoeste 17 Sudoeste 0 925.8 1.2 55
2019-09-25 11:00:00 16.8 3 Noroeste 15 Noroeste 0 925.6 1.6 55
2019-09-25 10:00:00 15.6 8 Noroeste 15 Noroeste 0 925.3 1.3 66
2019-09-25 09:00:00 14.1 5 Norte 15 Noroeste 0 924.6 0.6 77
2019-09-25 08:00:00 14.3 6 Noroeste 17 Oeste 0 924 -0.2 82
2019-09-25 07:00:00 14.9 10 Oeste 21 Oeste 0 924 -0.4 84
2019-09-25 06:00:00 15.5 9 Oeste 21 Oeste 0 924 -0.5 85
2019-09-25 05:00:00 15.9 8 Oeste 28 Oeste 0 924.2 -0.6 85
2019-09-25 04:00:00 16.6 12 Oeste 27 Oeste 0 924.4 -0.6 84
2019-09-25 03:00:00 17.3 14 Oeste 31 Oeste 0 924.5 -0.5 83
2019-09-25 02:00:00 18 15 Oeste 40 Oeste 0 924.8 -0.2 80
2019-09-25 01:00:00 18.7 14 Oeste 33 Oeste 0 925 0.1 76
2019-09-25 00:00:00 19.4 13 Oeste 36 Oeste 0 925 0.5 71
2019-09-24 23:00:00 20.3 14 Oeste 34 Oeste 0 925 0.7 67
2019-09-24 22:00:00 21.3 13 Oeste 36 Oeste 0 924.9 0.8 62
2019-09-24 21:00:00 22.8 17 Oeste 31 Sudoeste 0 924.5 0.1 53
2019-09-24 20:00:00 24.6 11 Oeste 32 Oeste 0 924.3 -0.5 44
2019-09-24 19:00:00 26.6 13 Oeste 30 Oeste 0 924.1 -1.3 32
2019-09-24 18:00:00 27.9 12 Oeste 35 Oeste 0 924.4 -1.6 27
2019-09-24 17:00:00 27.9 13 Oeste 30 Oeste 0 924.8 -2 25
2019-09-24 16:00:00 26.8 12 Oeste 34 Oeste 0 925.4 -1.9 27
2019-09-24 15:00:00 25.4 17 Oeste 33 Oeste 0 926 -1.7 29
2019-09-24 14:00:00 24.1 16 Sudoeste 29 Oeste 0 926.8 -0.8 32
2019-09-24 13:00:00 22.3 14 Sudoeste 27 Oeste 0 927.3 0.3 39
2019-09-24 12:00:00 20.1 9 Sudoeste 18 Oeste 0 927.7 1.1 45
2019-09-24 11:00:00 17.6 8 Sudoeste 15 Sudoeste 0 927.6 1.1 57
2019-09-24 10:00:00 16 6 Sur 13 Sur 0 927 0.8 63
2019-09-24 09:00:00 14.8 8 Sur 14 Sur 0 926.6 0.4 66
2019-09-24 08:00:00 14.2 6 Sur 12 Sur 0 926.5 0.2 70
2019-09-24 07:00:00 13.8 6 Sudeste 9 Sur 0 926.2 -0.7 70
2019-09-24 06:00:00 15.1 5 Sur 11 Sur 0 926.2 -1.1 65
2019-09-24 05:00:00 15.3 8 Sudoeste 12 Sur 0 926.3 -1.2 64
2019-09-24 04:00:00 15.6 7 Sur 13 Sur 0 926.9 -0.5 61
2019-09-24 03:00:00 16.1 6 Sur 10 Sur 0 927.3 -0.5 57
2019-09-24 02:00:00 16.1 5 Sur 12 Sudeste 0 927.5 -0.4 60
2019-09-24 01:00:00 17 7 Sudeste 13 Sudeste 0 927.4 -0.4 57
2019-09-24 00:00:00 17.4 3 Sur 9 Sur 0 927.8 0.4 55
2019-09-23 23:00:00 18.1 4 Sur 8 Sur 0 927.9 0.8 51
2019-09-23 22:00:00 18.9 3 Sudoeste 7 Sur 0 927.8 0.7 52
2019-09-23 21:00:00 19.8 4 Sudoeste 9 Sudoeste 0 927.4 0.4 48
2019-09-23 20:00:00 21.6 5 Sudoeste 17 Oeste 0 927.1 0.1 39
2019-09-23 19:00:00 23.8 6 Oeste 21 Oeste 0 927.1 -0.2 33
2019-09-23 18:00:00 24.6 7 Oeste 19 Sudoeste 0 927 -0.5 33
2019-09-23 17:00:00 24.2 7 Oeste 19 Oeste 0 927 -0.8 32
2019-09-23 16:00:00 23.7 6 Sudoeste 21 Oeste 0 927.3 -0.3 37
2019-09-23 15:00:00 22.3 4 Noroeste 20 Oeste 0 927.5 -0.9 43
2019-09-23 14:00:00 21 5 Sur 17 Sur 0 927.8 -0.2 43
2019-09-23 13:00:00 19.7 9 Sudoeste 17 Sur 0 927.6 -0.1 50
2019-09-23 12:00:00 17.2 4 Noroeste 13 Oeste 0 928.4 1.2 62
2019-09-23 11:00:00 15.4 5 Sur 11 Sur 0 928 1.4 74
2019-09-23 10:00:00 13.7 3 Sudoeste 10 Sur 0 927.7 1.5 79
2019-09-23 09:00:00 12.1 0 Calma 6 Sudoeste 0 927.2 1.2 82
2019-09-23 08:00:00 11.8 3 Sudoeste 7 Sudoeste 0 926.6 0.9 83
2019-09-23 07:00:00 12.2 0 Calma 7 Sur 0 926.2 0.8 81
2019-09-23 06:00:00 12.8 3 Sudoeste 9 Oeste 0 926 0.5 79
2019-09-23 05:00:00 13.4 3 Noroeste 15 Oeste 0 925.7 0.2 77
2019-09-23 04:00:00 13.8 7 Noroeste 20 Oeste 0 925.4 0.1 76
2019-09-23 03:00:00 14.1 12 Oeste 25 Oeste 0 925.5 0.3 75
2019-09-23 02:00:00 14.7 12 Oeste 27 Oeste 0 925.5 0.5 71
2019-09-23 01:00:00 14.8 14 Oeste 26 Oeste 0 925.3 1 69
2019-09-23 00:00:00 15.8 13 Oeste 28 Oeste 0 925.2 1.7 62
2019-09-22 23:00:00 16.3 13 Oeste 27 Oeste 0 925 1.9 59
2019-09-22 22:00:00 16.8 13 Oeste 23 Oeste 0 924.3 1.3 57
2019-09-22 21:00:00 17.4 10 Oeste 26 Oeste 0 923.5 0.9 49
2019-09-22 20:00:00 19.3 11 Oeste 29 Noroeste 0 923.1 0.7 45
2019-09-22 19:00:00 21.6 12 Oeste 32 Oeste 0 923 0.7 33
2019-09-22 18:00:00 22.5 14 Oeste 37 Oeste 0 922.6 0.5 33
2019-09-22 17:00:00 22.4 13 Oeste 35 Oeste 0 922.4 0.3 36
2019-09-22 16:00:00 21.3 15 Oeste 34 Oeste 0 922.3 0.2 50
2019-09-22 15:00:00 20.4 11 Oeste 31 Oeste 0 922.1 0 63
2019-09-22 14:00:00 19.4 10 Oeste 25 Oeste 0 922.1 0 78
2019-09-22 13:00:00 18 12 Oeste 32 Sudoeste 0.4 922.1 0.3 87
2019-09-22 12:00:00 18 17 Sudoeste 31 Sudoeste 0.2 922.1 0.9 84
2019-09-22 11:00:00 17.1 14 Sudoeste 31 Sudoeste 0 922.1 1.4 85
2019-09-22 10:00:00 17 11 Sur 24 Sur 0 921.8 1.3 84
2019-09-22 09:00:00 16 10 Sur 26 Sur 0 921.2 0.8 86
2019-09-22 08:00:00 15.9 10 Sur 23 Sur 0 920.7 0.1 85
2019-09-22 07:00:00 15.8 9 Sur 22 Sur 0 920.5 -0.1 84
2019-09-22 06:00:00 15.9 9 Sur 24 Sur 0 920.4 -0.7 84
2019-09-22 05:00:00 15.9 10 Sudoeste 23 Sudoeste 0 920.6 -0.2 85
2019-09-22 04:00:00 15.9 10 Sur 24 Sudeste 0 920.6 -0.4 86
2019-09-22 03:00:00 16 10 Sur 27 Sur 0.2 921.1 -0.3 87
2019-09-22 02:00:00 16.6 10 Sur 23 Sur 0 920.8 -0.2 83
2019-09-22 01:00:00 17.1 11 Sur 21 Sur 0 921 0.4 79
2019-09-22 00:00:00 17.3 10 Sudoeste 23 Sudoeste 0 921.4 1.2 80
2019-09-21 23:00:00 18 13 Sudoeste 24 Sur 0 921 0.7 78
2019-09-21 22:00:00 19.2 6 Sur 21 Sudoeste 0 920.6 0.4 76
2019-09-21 21:00:00 19.4 5 Sur 14 Sur 0 920.2 -0.2 77
2019-09-21 20:00:00 20.3 7 Sur 18 Sur 0 920.3 -0.3 71
2019-09-21 19:00:00 20.6 12 Sudoeste 22 Sudoeste 0 920.2 -0.7 68
2019-09-21 18:00:00 20.6 10 Sudoeste 22 Sur 0 920.4 -1 70
2019-09-21 17:00:00 19.7 11 Sur 26 Sur 0.2 920.6 -1.2 74
2019-09-21 16:00:00 21.3 11 Sur 26 Sur 0 920.9 -1.1 63
2019-09-21 15:00:00 21 10 Sur 26 Sudoeste 0 921.4 -0.7 65
2019-09-21 14:00:00 20.3 12 Sudoeste 30 Sudoeste 0 921.8 0 67
2019-09-21 13:00:00 19.9 19 Sudoeste 34 Sudoeste 0 922 0.2 67
2019-09-21 12:00:00 19.2 12 Sudoeste 22 Sur 0 922.1 0.5 73
2019-09-21 11:00:00 18 8 Sur 21 Sudoeste 0 921.8 0 81
2019-09-21 10:00:00 16.4 7 Sur 15 Sur 0 921.8 0.5 88
2019-09-21 09:00:00 15.3 6 Sudeste 13 Sudeste 0 921.6 0.1 90
2019-09-21 08:00:00 15.1 6 Sudeste 15 Sudeste 0 921.8 0.4 90
2019-09-21 07:00:00 15.3 8 Sudeste 13 Sur 0 921.3 -0.1 90
2019-09-21 06:00:00 15.6 7 Sudeste 19 Sudeste 0 921.5 -0.5 89
2019-09-21 05:00:00 15.9 13 Sudeste 26 Sudeste 0 921.4 -0.5 88
2019-09-21 04:00:00 16.4 12 Sudeste 33 Sudeste 0.2 921.4 -0.4 88
2019-09-21 03:00:00 16.3 14 Sudeste 34 Sudeste 0 922 -0.1 88
2019-09-21 02:00:00 16.7 16 Sudeste 37 Sur 4.8 921.9 0 90
2019-09-21 01:00:00 16.7 15 Sudeste 42 Sudeste 0.4 921.8 -0.6 85
2019-09-21 00:00:00 17.9 14 Sudeste 34 Sur 0 922.1 -0.2 76
2019-09-20 23:00:00 19.2 14 Sudeste 25 Este 0 921.9 0.6 72
2019-09-20 22:00:00 19.1 8 Sudoeste 25 Sudoeste 0.4 922.4 1.2 72
2019-09-20 21:00:00 21 15 Sur 40 Sudeste 1.4 922.3 0.6 74
2019-09-20 20:00:00 22.3 15 Sudeste 47 Sudeste 0 921.3 -0.7 59
2019-09-20 19:00:00 24.6 16 Sudeste 47 Sudeste 0 921.2 -1.2 48
2019-09-20 18:00:00 25.4 19 Sudeste 44 Sudeste 0 921.7 -1.2 45
2019-09-20 17:00:00 24.6 17 Sudeste 40 Sudeste 0 922 -1.5 50
2019-09-20 16:00:00 25.7 22 Sudeste 42 Este 0 922.4 -1.4 45
2019-09-20 15:00:00 24.3 21 Sudeste 41 Sudeste 0 922.9 -1.3 49
2019-09-20 14:00:00 22.9 17 Sudeste 36 Sudeste 0 923.5 -0.8 54
2019-09-20 13:00:00 22.2 19 Sudeste 44 Sudeste 0 923.8 -0.5 57
2019-09-20 12:00:00 21.3 23 Sudeste 46 Sudeste 0 924.2 -0.1 61
2019-09-20 11:00:00 19.8 24 Sudeste 52 Este 0 924.3 0.5 69
2019-09-20 10:00:00 18.2 23 Sudeste 46 Sudeste 0 924.3 0.9 75
2019-09-20 09:00:00 17 17 Sudeste 37 Sudeste 0 924.3 1 81
2019-09-20 08:00:00 16.9 17 Sudeste 36 Sudeste 0 923.8 0.6 80
2019-09-20 07:00:00 17.1 17 Sudeste 33 Sudeste 0 923.4 -0.3 77
2019-09-20 06:00:00 17.5 18 Sudeste 42 Sudeste 0 923.3 -0.7 72
2019-09-20 05:00:00 17.7 22 Sudeste 41 Este 0 923.2 -0.8 70
2019-09-20 04:00:00 17.9 19 Sudeste 33 Sudeste 0 923.7 -0.4 71
2019-09-20 03:00:00 18.4 17 Sudeste 37 Este 0 924 -0.3 70
2019-09-20 02:00:00 18.7 19 Sudeste 35 Sudeste 0 924 -0.4 67
2019-09-20 01:00:00 19.2 19 Sudeste 37 Sudeste 0 924.1 0.2 62
2019-09-20 00:00:00 20.1 18 Sudeste 33 Sudeste 0 924.3 0.9 59
2019-09-19 23:00:00 21.3 15 Sudeste 26 Este 0 924.4 1.3 57
2019-09-19 22:00:00 22.4 10 Sudeste 16 Sudeste 0 923.9 0.9 54
2019-09-19 21:00:00 23.8 8 Sudeste 15 Sudeste 0 923.4 0.5 49
2019-09-19 20:00:00 25.9 4 Sur 22 Sudoeste 0 923.1 0.1 38
2019-09-19 19:00:00 26.8 6 Sudoeste 21 Sudoeste 0 923 -0.3 35
2019-09-19 18:00:00 27.4 13 Sudoeste 27 Sudoeste 0 922.9 -1.1 30
2019-09-19 17:00:00 29.8 9 Sudoeste 25 Oeste 0 923 -1.5 28
2019-09-19 16:00:00 29.4 10 Oeste 24 Sudoeste 0 923.3 -1.5 29
2019-09-19 15:00:00 28.9 5 Sur 18 Sudoeste 0 924 -1.1 30
2019-09-19 14:00:00 27.9 5 Sudeste 18 Sur 0 924.5 -0.6 33
2019-09-19 13:00:00 26.1 6 Sur 16 Sudeste 0 924.8 0 40
2019-09-19 12:00:00 22.9 9 Sudeste 19 Sudeste 0 925.1 0.7 52
2019-09-19 11:00:00 21.1 12 Sudeste 21 Sudeste 0 925.1 1 58
2019-09-19 10:00:00 18.9 12 Sudeste 21 Sudeste 0 924.8 0.8 65
2019-09-19 09:00:00 17.4 9 Sudeste 19 Sudeste 0 924.4 0.5 71
2019-09-19 08:00:00 16.9 7 Sudeste 13 Sudeste 0 924.1 0.1 71
2019-09-19 07:00:00 17.5 8 Sudeste 15 Sudeste 0 924 -0.2 67
2019-09-19 06:00:00 17.9 9 Sudeste 18 Este 0 923.9 -0.5 63
2019-09-19 05:00:00 18.5 10 Sudeste 21 Sudeste 0 924 -0.5 57
2019-09-19 04:00:00 18.8 6 Este 9 Este 0 924.2 -0.3 56
2019-09-19 03:00:00 18.8 5 Sudeste 8 Sudeste 0 924.4 0 61
2019-09-19 02:00:00 19.1 6 Sudeste 10 Sudeste 0 924.5 0 60
2019-09-19 01:00:00 19.5 7 Sudeste 11 Sudeste 0 924.5 0 58
2019-09-19 00:00:00 20 0 Calma 2 Sur 0 924.4 0.4 60
2019-09-18 23:00:00 20.7 0 Calma 4 Sur 0 924.5 0.9 55
2019-09-18 22:00:00 21.6 3 Sur 6 Sur 0 924.5 1.1 51
2019-09-18 21:00:00 22.6 3 Sudoeste 5 Sudoeste 0 924 0.5 54
2019-09-18 20:00:00 25 2 Noroeste 10 Sudoeste 0 923.6 0 41
2019-09-18 19:00:00 26.9 6 Sudoeste 16 Sudoeste 0 923.4 -0.7 34
2019-09-18 18:00:00 28.4 7 Sudoeste 17 Oeste 0 923.5 -1 29
2019-09-18 17:00:00 28.5 5 Sur 17 Noroeste 0 923.6 -1.2 30
2019-09-18 16:00:00 26.4 6 Noroeste 17 Noroeste 0 924.1 -0.8 33
2019-09-18 15:00:00 25.6 5 Oeste 16 Noroeste 0 924.5 -0.5 32
2019-09-18 14:00:00 23.5 5 Noroeste 15 Norte 0 924.8 -0.1 53
2019-09-18 13:00:00 22.1 4 Noroeste 14 Noroeste 0 924.9 0.5 56
2019-09-18 12:00:00 20.1 2 Sudoeste 10 Sur 0 925 1.1 60
2019-09-18 11:00:00 17.9 4 Sur 13 Sudeste 0 924.9 1.6 67
2019-09-18 10:00:00 16.1 8 Sur 14 Sur 0 924.4 1.3 73
2019-09-18 09:00:00 15.6 5 Oeste 13 Sudeste 0 923.9 0.8 72
2019-09-18 08:00:00 15.6 6 Sudeste 12 Este 0 923.3 0.2 71
2019-09-18 07:00:00 15.8 6 Este 13 Este 0 923.1 -0.2 70
2019-09-18 06:00:00 15.6 5 Este 12 Este 0 923.1 -1 72
2019-09-18 05:00:00 15.8 5 Nordeste 10 Nordeste 0 923.1 -1.6 72
2019-09-18 04:00:00 15.5 4 Este 9 Nordeste 0 923.3 -1.7 76
2019-09-18 03:00:00 15.6 5 Norte 13 Noroeste 0 924.1 -0.8 74
2019-09-18 02:00:00 16.1 10 Oeste 26 Sudoeste 0 924.7 0.7 72
2019-09-18 01:00:00 16.4 7 Oeste 13 Oeste 0 925 1.2 73
2019-09-18 00:00:00 16.7 8 Sudoeste 14 Sudoeste 0 924.9 3.3 71
2019-09-17 23:00:00 17.6 5 Sudoeste 17 Oeste 0 924 -1.8 68
2019-09-17 22:00:00 18.2 9 Sur 22 Oeste 0 923.8 -0.2 67
2019-09-17 21:00:00 18.1 8 Este 19 Nordeste 1.4 921.6 -1 71